sensor_id;sensor_type;location;lat;lon;timestamp;P1;durP1;ratioP1;P2;durP2;ratioP2
12511;SDS011;6321;53.798;10.382;2022-08-20T00:02:06;20.97;;;18.87;;
12511;SDS011;6321;53.798;10.382;2022-08-20T00:04:34;21.43;;;19.30;;
12511;SDS011;6321;53.798;10.382;2022-08-20T00:07:00;24.23;;;21.80;;
12511;SDS011;6321;53.798;10.382;2022-08-20T00:09:27;21.63;;;19.43;;
12511;SDS011;6321;53.798;10.382;2022-08-20T00:11:53;22.90;;;20.70;;
12511;SDS011;6321;53.798;10.382;2022-08-20T00:14:22;24.03;;;21.60;;
12511;SDS011;6321;53.798;10.382;2022-08-20T00:16:47;22.13;;;19.47;;
12511;SDS011;6321;53.798;10.382;2022-08-20T00:19:14;21.83;;;19.63;;
12511;SDS011;6321;53.798;10.382;2022-08-20T00:21:40;20.07;;;18.03;;
12511;SDS011;6321;53.798;10.382;2022-08-20T00:24:05;21.33;;;19.23;;
12511;SDS011;6321;53.798;10.382;2022-08-20T00:26:31;20.30;;;18.20;;
12511;SDS011;6321;53.798;10.382;2022-08-20T00:28:57;19.27;;;17.33;;
12511;SDS011;6321;53.798;10.382;2022-08-20T00:31:23;17.47;;;15.77;;
12511;SDS011;6321;53.798;10.382;2022-08-20T00:33:49;19.37;;;17.37;;
12511;SDS011;6321;53.798;10.382;2022-08-20T00:36:18;18.73;;;16.83;;
12511;SDS011;6321;53.798;10.382;2022-08-20T00:38:48;18.73;;;16.80;;
12511;SDS011;6321;53.798;10.382;2022-08-20T00:41:32;20.27;;;18.17;;
12511;SDS011;6321;53.798;10.382;2022-08-20T00:44:09;22.03;;;19.83;;
12511;SDS011;6321;53.798;10.382;2022-08-20T00:46:46;23.33;;;20.93;;
12511;SDS011;6321;53.798;10.382;2022-08-20T00:49:16;22.83;;;20.43;;
12511;SDS011;6321;53.798;10.382;2022-08-20T00:51:50;21.20;;;19.00;;
12511;SDS011;6321;53.798;10.382;2022-08-20T00:54:34;21.40;;;19.13;;
12511;SDS011;6321;53.798;10.382;2022-08-20T00:57:28;21.53;;;19.33;;
12511;SDS011;6321;53.798;10.382;2022-08-20T01:00:23;23.73;;;21.30;;
12511;SDS011;6321;53.798;10.382;2022-08-20T01:02:50;26.40;;;22.13;;
12511;SDS011;6321;53.798;10.382;2022-08-20T01:05:16;22.70;;;20.40;;
12511;SDS011;6321;53.798;10.382;2022-08-20T01:07:42;23.10;;;20.73;;
12511;SDS011;6321;53.798;10.382;2022-08-20T01:10:14;21.67;;;19.57;;
12511;SDS011;6321;53.798;10.382;2022-08-20T01:12:44;23.03;;;20.63;;
12511;SDS011;6321;53.798;10.382;2022-08-20T01:15:13;22.83;;;20.60;;
12511;SDS011;6321;53.798;10.382;2022-08-20T01:17:42;23.00;;;20.60;;
12511;SDS011;6321;53.798;10.382;2022-08-20T01:20:16;23.33;;;20.93;;
12511;SDS011;6321;53.798;10.382;2022-08-20T01:26:14;21.03;;;18.83;;
12511;SDS011;6321;53.798;10.382;2022-08-20T01:28:56;21.60;;;19.43;;
12511;SDS011;6321;53.798;10.382;2022-08-20T01:31:30;21.83;;;19.40;;
12511;SDS011;6321;53.798;10.382;2022-08-20T01:33:58;21.07;;;18.50;;
12511;SDS011;6321;53.798;10.382;2022-08-20T01:36:39;24.20;;;20.90;;
12511;SDS011;6321;53.798;10.382;2022-08-20T01:39:09;25.20;;;21.67;;
12511;SDS011;6321;53.798;10.382;2022-08-20T01:42:13;21.93;;;19.53;;
12511;SDS011;6321;53.798;10.382;2022-08-20T01:44:39;21.70;;;19.47;;
12511;SDS011;6321;53.798;10.382;2022-08-20T01:47:14;22.50;;;19.73;;
12511;SDS011;6321;53.798;10.382;2022-08-20T01:49:42;22.47;;;19.63;;
12511;SDS011;6321;53.798;10.382;2022-08-20T01:52:16;21.33;;;19.07;;
12511;SDS011;6321;53.798;10.382;2022-08-20T01:54:47;21.90;;;19.60;;
12511;SDS011;6321;53.798;10.382;2022-08-20T01:57:15;20.10;;;17.60;;
12511;SDS011;6321;53.798;10.382;2022-08-20T01:59:49;19.07;;;17.17;;
12511;SDS011;6321;53.798;10.382;2022-08-20T02:02:14;20.20;;;18.20;;
12511;SDS011;6321;53.798;10.382;2022-08-20T02:04:41;19.63;;;17.60;;
12511;SDS011;6321;53.798;10.382;2022-08-20T02:07:10;19.37;;;17.23;;
12511;SDS011;6321;53.798;10.382;2022-08-20T02:09:38;20.47;;;18.37;;
12511;SDS011;6321;53.798;10.382;2022-08-20T02:12:05;18.83;;;16.93;;
12511;SDS011;6321;53.798;10.382;2022-08-20T02:14:32;21.40;;;18.17;;
12511;SDS011;6321;53.798;10.382;2022-08-20T02:16:59;19.27;;;17.23;;
12511;SDS011;6321;53.798;10.382;2022-08-20T02:19:28;21.10;;;17.43;;
12511;SDS011;6321;53.798;10.382;2022-08-20T02:25:00;18.17;;;16.27;;
12511;SDS011;6321;53.798;10.382;2022-08-20T02:27:26;17.67;;;15.97;;
12511;SDS011;6321;53.798;10.382;2022-08-20T02:29:52;18.50;;;16.67;;
12511;SDS011;6321;53.798;10.382;2022-08-20T02:32:18;17.20;;;15.50;;
12511;SDS011;6321;53.798;10.382;2022-08-20T02:34:44;18.63;;;16.63;;
12511;SDS011;6321;53.798;10.382;2022-08-20T02:37:11;18.93;;;17.03;;
12511;SDS011;6321;53.798;10.382;2022-08-20T02:39:43;19.37;;;17.33;;
12511;SDS011;6321;53.798;10.382;2022-08-20T02:42:10;19.57;;;17.07;;
12511;SDS011;6321;53.798;10.382;2022-08-20T02:44:37;20.67;;;18.10;;
12511;SDS011;6321;53.798;10.382;2022-08-20T02:47:03;18.23;;;16.40;;
12511;SDS011;6321;53.798;10.382;2022-08-20T02:49:30;19.33;;;17.33;;
12511;SDS011;6321;53.798;10.382;2022-08-20T02:51:57;16.83;;;15.20;;
12511;SDS011;6321;53.798;10.382;2022-08-20T02:54:25;17.67;;;15.87;;
12511;SDS011;6321;53.798;10.382;2022-08-20T02:56:53;16.80;;;15.10;;
12511;SDS011;6321;53.798;10.382;2022-08-20T02:59:19;17.17;;;15.37;;
12511;SDS011;6321;53.798;10.382;2022-08-20T03:01:44;18.87;;;16.53;;
12511;SDS011;6321;53.798;10.382;2022-08-20T03:04:10;17.80;;;16.03;;
12511;SDS011;6321;53.798;10.382;2022-08-20T03:06:36;18.47;;;16.57;;
12511;SDS011;6321;53.798;10.382;2022-08-20T03:09:02;16.97;;;15.27;;
12511;SDS011;6321;53.798;10.382;2022-08-20T03:11:31;16.87;;;15.17;;
12511;SDS011;6321;53.798;10.382;2022-08-20T03:13:57;16.27;;;14.07;;
12511;SDS011;6321;53.798;10.382;2022-08-20T03:16:23;16.03;;;14.53;;
12511;SDS011;6321;53.798;10.382;2022-08-20T03:18:49;17.90;;;14.83;;
12511;SDS011;6321;53.798;10.382;2022-08-20T03:21:15;16.87;;;15.17;;
12511;SDS011;6321;53.798;10.382;2022-08-20T03:23:41;14.23;;;12.73;;
12511;SDS011;6321;53.798;10.382;2022-08-20T03:26:08;16.70;;;13.63;;
12511;SDS011;6321;53.798;10.382;2022-08-20T03:28:36;15.53;;;14.07;;
12511;SDS011;6321;53.798;10.382;2022-08-20T03:31:02;14.90;;;13.47;;
12511;SDS011;6321;53.798;10.382;2022-08-20T03:33:28;15.77;;;13.63;;
12511;SDS011;6321;53.798;10.382;2022-08-20T03:35:55;15.47;;;13.70;;
12511;SDS011;6321;53.798;10.382;2022-08-20T03:38:24;15.60;;;14.10;;
12511;SDS011;6321;53.798;10.382;2022-08-20T03:40:54;14.70;;;12.97;;
12511;SDS011;6321;53.798;10.382;2022-08-20T03:43:20;13.97;;;12.57;;
12511;SDS011;6321;53.798;10.382;2022-08-20T03:45:46;16.40;;;12.97;;
12511;SDS011;6321;53.798;10.382;2022-08-20T03:48:13;15.73;;;14.13;;
12511;SDS011;6321;53.798;10.382;2022-08-20T03:50:40;13.93;;;11.97;;
12511;SDS011;6321;53.798;10.382;2022-08-20T03:53:08;15.00;;;12.47;;
12511;SDS011;6321;53.798;10.382;2022-08-20T03:55:36;13.00;;;11.43;;
12511;SDS011;6321;53.798;10.382;2022-08-20T03:58:03;14.70;;;13.30;;
12511;SDS011;6321;53.798;10.382;2022-08-20T04:00:37;13.47;;;12.17;;
12511;SDS011;6321;53.798;10.382;2022-08-20T04:03:12;13.47;;;12.17;;
12511;SDS011;6321;53.798;10.382;2022-08-20T04:05:39;14.70;;;11.93;;
12511;SDS011;6321;53.798;10.382;2022-08-20T04:08:07;14.80;;;12.10;;
12511;SDS011;6321;53.798;10.382;2022-08-20T04:10:34;17.63;;;14.83;;
12511;SDS011;6321;53.798;10.382;2022-08-20T04:13:01;16.57;;;14.30;;
12511;SDS011;6321;53.798;10.382;2022-08-20T04:15:28;14.63;;;13.07;;
12511;SDS011;6321;53.798;10.382;2022-08-20T04:17:56;14.83;;;13.43;;
12511;SDS011;6321;53.798;10.382;2022-08-20T04:20:23;14.93;;;13.33;;
12511;SDS011;6321;53.798;10.382;2022-08-20T04:22:54;17.13;;;13.43;;
12511;SDS011;6321;53.798;10.382;2022-08-20T04:25:21;14.13;;;12.83;;
12511;SDS011;6321;53.798;10.382;2022-08-20T04:27:47;16.37;;;13.73;;
12511;SDS011;6321;53.798;10.382;2022-08-20T04:30:17;16.67;;;15.07;;
12511;SDS011;6321;53.798;10.382;2022-08-20T04:32:44;16.43;;;14.60;;
12511;SDS011;6321;53.798;10.382;2022-08-20T04:35:13;14.93;;;13.33;;
12511;SDS011;6321;53.798;10.382;2022-08-20T04:37:40;17.17;;;15.10;;
12511;SDS011;6321;53.798;10.382;2022-08-20T04:40:11;15.70;;;14.17;;
12511;SDS011;6321;53.798;10.382;2022-08-20T04:42:57;16.53;;;14.80;;
12511;SDS011;6321;53.798;10.382;2022-08-20T04:45:23;18.27;;;15.00;;
12511;SDS011;6321;53.798;10.382;2022-08-20T04:47:49;16.80;;;15.13;;
12511;SDS011;6321;53.798;10.382;2022-08-20T04:50:16;18.07;;;15.80;;
12511;SDS011;6321;53.798;10.382;2022-08-20T04:52:49;18.63;;;15.80;;
12511;SDS011;6321;53.798;10.382;2022-08-20T04:55:23;18.07;;;16.17;;
12511;SDS011;6321;53.798;10.382;2022-08-20T04:57:50;17.43;;;15.63;;
12511;SDS011;6321;53.798;10.382;2022-08-20T05:00:16;16.70;;;15.00;;
12511;SDS011;6321;53.798;10.382;2022-08-20T05:02:42;18.07;;;16.07;;
12511;SDS011;6321;53.798;10.382;2022-08-20T05:05:08;17.70;;;15.80;;
12511;SDS011;6321;53.798;10.382;2022-08-20T05:07:38;18.27;;;15.47;;
12511;SDS011;6321;53.798;10.382;2022-08-20T05:10:09;17.03;;;15.33;;
12511;SDS011;6321;53.798;10.382;2022-08-20T05:12:44;20.23;;;13.93;;
12511;SDS011;6321;53.798;10.382;2022-08-20T05:15:10;18.23;;;16.27;;
12511;SDS011;6321;53.798;10.382;2022-08-20T05:17:37;19.23;;;16.77;;
12511;SDS011;6321;53.798;10.382;2022-08-20T05:20:05;17.73;;;15.93;;
12511;SDS011;6321;53.798;10.382;2022-08-20T05:22:36;20.57;;;17.70;;
12511;SDS011;6321;53.798;10.382;2022-08-20T05:25:03;19.40;;;17.43;;
12511;SDS011;6321;53.798;10.382;2022-08-20T05:27:29;22.63;;;18.17;;
12511;SDS011;6321;53.798;10.382;2022-08-20T05:30:00;20.03;;;17.33;;
12511;SDS011;6321;53.798;10.382;2022-08-20T05:32:32;21.43;;;18.03;;
12511;SDS011;6321;53.798;10.382;2022-08-20T05:35:03;23.37;;;19.70;;
12511;SDS011;6321;53.798;10.382;2022-08-20T05:37:33;24.23;;;18.83;;
12511;SDS011;6321;53.798;10.382;2022-08-20T05:40:00;24.90;;;19.70;;
12511;SDS011;6321;53.798;10.382;2022-08-20T05:42:25;24.17;;;20.37;;
12511;SDS011;6321;53.798;10.382;2022-08-20T05:44:53;21.67;;;19.37;;
12511;SDS011;6321;53.798;10.382;2022-08-20T05:47:18;27.33;;;20.53;;
12511;SDS011;6321;53.798;10.382;2022-08-20T05:49:47;24.90;;;19.67;;
12511;SDS011;6321;53.798;10.382;2022-08-20T05:52:13;23.67;;;20.17;;
12511;SDS011;6321;53.798;10.382;2022-08-20T05:57:31;29.90;;;21.90;;
12511;SDS011;6321;53.798;10.382;2022-08-20T05:59:58;31.67;;;22.77;;
12511;SDS011;6321;53.798;10.382;2022-08-20T06:02:29;30.93;;;22.67;;
12511;SDS011;6321;53.798;10.382;2022-08-20T06:05:13;29.40;;;22.03;;
12511;SDS011;6321;53.798;10.382;2022-08-20T06:07:39;31.67;;;23.27;;
12511;SDS011;6321;53.798;10.382;2022-08-20T06:10:06;33.83;;;25.33;;
12511;SDS011;6321;53.798;10.382;2022-08-20T06:12:34;35.93;;;25.70;;
12511;SDS011;6321;53.798;10.382;2022-08-20T06:15:01;34.80;;;25.63;;
12511;SDS011;6321;53.798;10.382;2022-08-20T06:17:34;35.53;;;25.67;;
12511;SDS011;6321;53.798;10.382;2022-08-20T06:20:02;37.13;;;27.60;;
12511;SDS011;6321;53.798;10.382;2022-08-20T06:22:31;39.30;;;27.90;;
12511;SDS011;6321;53.798;10.382;2022-08-20T06:24:58;39.97;;;27.07;;
12511;SDS011;6321;53.798;10.382;2022-08-20T06:27:24;37.93;;;26.37;;
12511;SDS011;6321;53.798;10.382;2022-08-20T06:29:53;37.70;;;26.93;;
12511;SDS011;6321;53.798;10.382;2022-08-20T06:32:19;43.20;;;28.30;;
12511;SDS011;6321;53.798;10.382;2022-08-20T06:34:48;40.00;;;26.57;;
12511;SDS011;6321;53.798;10.382;2022-08-20T06:37:25;39.33;;;26.53;;
12511;SDS011;6321;53.798;10.382;2022-08-20T06:39:52;33.33;;;24.80;;
12511;SDS011;6321;53.798;10.382;2022-08-20T06:42:18;36.50;;;26.37;;
12511;SDS011;6321;53.798;10.382;2022-08-20T06:44:45;30.63;;;22.80;;
12511;SDS011;6321;53.798;10.382;2022-08-20T06:47:15;32.33;;;23.47;;
12511;SDS011;6321;53.798;10.382;2022-08-20T06:49:43;26.97;;;19.23;;
12511;SDS011;6321;53.798;10.382;2022-08-20T06:52:10;23.97;;;19.00;;
12511;SDS011;6321;53.798;10.382;2022-08-20T06:54:35;23.93;;;20.00;;
12511;SDS011;6321;53.798;10.382;2022-08-20T06:57:04;23.13;;;18.60;;
12511;SDS011;6321;53.798;10.382;2022-08-20T06:59:33;23.20;;;18.30;;
12511;SDS011;6321;53.798;10.382;2022-08-20T07:02:00;25.50;;;18.40;;
12511;SDS011;6321;53.798;10.382;2022-08-20T07:04:27;22.60;;;19.63;;
12511;SDS011;6321;53.798;10.382;2022-08-20T07:06:53;23.30;;;20.60;;
12511;SDS011;6321;53.798;10.382;2022-08-20T07:09:21;21.43;;;19.03;;
12511;SDS011;6321;53.798;10.382;2022-08-20T07:11:49;24.43;;;18.80;;
12511;SDS011;6321;53.798;10.382;2022-08-20T07:14:18;25.77;;;19.80;;
12511;SDS011;6321;53.798;10.382;2022-08-20T07:16:45;23.93;;;19.37;;
12511;SDS011;6321;53.798;10.382;2022-08-20T07:19:11;26.37;;;19.87;;
12511;SDS011;6321;53.798;10.382;2022-08-20T07:21:37;23.63;;;18.53;;
12511;SDS011;6321;53.798;10.382;2022-08-20T07:24:03;22.80;;;19.43;;
12511;SDS011;6321;53.798;10.382;2022-08-20T07:26:29;22.80;;;19.30;;
12511;SDS011;6321;53.798;10.382;2022-08-20T07:28:55;23.67;;;19.57;;
12511;SDS011;6321;53.798;10.382;2022-08-20T07:31:21;20.13;;;18.03;;
12511;SDS011;6321;53.798;10.382;2022-08-20T07:34:05;18.70;;;16.70;;
12511;SDS011;6321;53.798;10.382;2022-08-20T07:36:32;19.13;;;17.10;;
12511;SDS011;6321;53.798;10.382;2022-08-20T07:38:59;18.50;;;16.03;;
12511;SDS011;6321;53.798;10.382;2022-08-20T07:41:25;17.87;;;16.10;;
12511;SDS011;6321;53.798;10.382;2022-08-20T07:43:52;15.53;;;13.50;;
12511;SDS011;6321;53.798;10.382;2022-08-20T07:46:18;15.10;;;13.60;;
12511;SDS011;6321;53.798;10.382;2022-08-20T07:48:45;15.23;;;13.83;;
12511;SDS011;6321;53.798;10.382;2022-08-20T07:51:13;13.70;;;12.10;;
12511;SDS011;6321;53.798;10.382;2022-08-20T07:53:41;18.40;;;14.23;;
12511;SDS011;6321;53.798;10.382;2022-08-20T07:56:12;16.20;;;14.27;;
12511;SDS011;6321;53.798;10.382;2022-08-20T07:58:41;15.63;;;14.03;;
12511;SDS011;6321;53.798;10.382;2022-08-20T08:01:14;13.00;;;11.90;;
12511;SDS011;6321;53.798;10.382;2022-08-20T08:03:44;11.87;;;10.60;;
12511;SDS011;6321;53.798;10.382;2022-08-20T08:06:11;8.20;;;7.50;;
12511;SDS011;6321;53.798;10.382;2022-08-20T08:08:37;9.93;;;7.43;;
12511;SDS011;6321;53.798;10.382;2022-08-20T08:11:05;6.27;;;5.77;;
12511;SDS011;6321;53.798;10.382;2022-08-20T08:13:34;7.43;;;6.43;;
12511;SDS011;6321;53.798;10.382;2022-08-20T08:16:04;10.83;;;6.83;;
12511;SDS011;6321;53.798;10.382;2022-08-20T08:18:41;7.03;;;6.23;;
12511;SDS011;6321;53.798;10.382;2022-08-20T08:21:13;6.50;;;5.97;;
12511;SDS011;6321;53.798;10.382;2022-08-20T08:23:39;7.80;;;4.93;;
12511;SDS011;6321;53.798;10.382;2022-08-20T08:26:12;5.60;;;4.47;;
12511;SDS011;6321;53.798;10.382;2022-08-20T08:28:39;4.80;;;4.40;;
12511;SDS011;6321;53.798;10.382;2022-08-20T08:31:07;4.90;;;4.43;;
12511;SDS011;6321;53.798;10.382;2022-08-20T08:33:34;4.80;;;4.37;;
12511;SDS011;6321;53.798;10.382;2022-08-20T08:38:32;4.33;;;4.03;;
12511;SDS011;6321;53.798;10.382;2022-08-20T08:41:02;4.80;;;4.40;;
12511;SDS011;6321;53.798;10.382;2022-08-20T08:44:06;4.33;;;4.03;;
12511;SDS011;6321;53.798;10.382;2022-08-20T08:46:48;5.53;;;5.07;;
12511;SDS011;6321;53.798;10.382;2022-08-20T08:49:21;5.23;;;4.73;;
12511;SDS011;6321;53.798;10.382;2022-08-20T08:51:58;5.73;;;5.30;;
12511;SDS011;6321;53.798;10.382;2022-08-20T08:54:29;4.87;;;4.47;;
12511;SDS011;6321;53.798;10.382;2022-08-20T08:56:56;6.10;;;4.40;;
12511;SDS011;6321;53.798;10.382;2022-08-20T08:59:23;5.40;;;4.30;;
12511;SDS011;6321;53.798;10.382;2022-08-20T09:01:53;5.37;;;4.40;;
12511;SDS011;6321;53.798;10.382;2022-08-20T09:04:20;4.97;;;4.67;;
12511;SDS011;6321;53.798;10.382;2022-08-20T09:06:48;4.70;;;4.33;;
12511;SDS011;6321;53.798;10.382;2022-08-20T09:09:36;5.10;;;4.70;;
12511;SDS011;6321;53.798;10.382;2022-08-20T09:12:09;6.23;;;5.70;;
12511;SDS011;6321;53.798;10.382;2022-08-20T09:14:37;4.70;;;4.37;;
12511;SDS011;6321;53.798;10.382;2022-08-20T09:17:03;4.80;;;4.30;;
12511;SDS011;6321;53.798;10.382;2022-08-20T09:19:29;5.53;;;5.03;;
12511;SDS011;6321;53.798;10.382;2022-08-20T09:21:55;5.23;;;4.83;;
12511;SDS011;6321;53.798;10.382;2022-08-20T09:24:21;5.20;;;4.77;;
12511;SDS011;6321;53.798;10.382;2022-08-20T09:26:46;5.87;;;4.53;;
12511;SDS011;6321;53.798;10.382;2022-08-20T09:29:12;4.47;;;3.93;;
12511;SDS011;6321;53.798;10.382;2022-08-20T09:31:38;5.23;;;4.67;;
12511;SDS011;6321;53.798;10.382;2022-08-20T09:34:03;5.40;;;4.67;;
12511;SDS011;6321;53.798;10.382;2022-08-20T09:36:29;6.03;;;4.10;;
12511;SDS011;6321;53.798;10.382;2022-08-20T09:38:55;4.77;;;4.07;;
12511;SDS011;6321;53.798;10.382;2022-08-20T09:41:20;4.07;;;3.33;;
12511;SDS011;6321;53.798;10.382;2022-08-20T09:43:46;3.77;;;3.47;;
12511;SDS011;6321;53.798;10.382;2022-08-20T09:46:11;3.73;;;3.33;;
12511;SDS011;6321;53.798;10.382;2022-08-20T09:48:37;4.57;;;3.33;;
12511;SDS011;6321;53.798;10.382;2022-08-20T09:51:03;3.90;;;3.00;;
12511;SDS011;6321;53.798;10.382;2022-08-20T09:53:28;4.83;;;2.80;;
12511;SDS011;6321;53.798;10.382;2022-08-20T09:55:55;4.43;;;2.70;;
12511;SDS011;6321;53.798;10.382;2022-08-20T09:58:23;4.37;;;2.93;;
12511;SDS011;6321;53.798;10.382;2022-08-20T10:01:02;6.20;;;3.73;;
12511;SDS011;6321;53.798;10.382;2022-08-20T10:03:32;4.70;;;2.90;;
12511;SDS011;6321;53.798;10.382;2022-08-20T10:05:57;4.47;;;2.90;;
12511;SDS011;6321;53.798;10.382;2022-08-20T10:08:23;2.63;;;2.30;;
12511;SDS011;6321;53.798;10.382;2022-08-20T10:10:49;6.33;;;2.87;;
12511;SDS011;6321;53.798;10.382;2022-08-20T10:13:14;3.80;;;2.90;;
12511;SDS011;6321;53.798;10.382;2022-08-20T10:15:40;4.03;;;2.30;;
12511;SDS011;6321;53.798;10.382;2022-08-20T10:18:05;4.43;;;2.30;;
12511;SDS011;6321;53.798;10.382;2022-08-20T10:20:31;3.50;;;2.77;;
12511;SDS011;6321;53.798;10.382;2022-08-20T10:22:58;4.80;;;2.50;;
12511;SDS011;6321;53.798;10.382;2022-08-20T10:25:24;5.90;;;2.70;;
12511;SDS011;6321;53.798;10.382;2022-08-20T10:27:50;3.30;;;2.87;;
12511;SDS011;6321;53.798;10.382;2022-08-20T10:30:15;4.93;;;2.77;;
12511;SDS011;6321;53.798;10.382;2022-08-20T10:32:41;6.57;;;2.80;;
12511;SDS011;6321;53.798;10.382;2022-08-20T10:35:07;4.17;;;2.37;;
12511;SDS011;6321;53.798;10.382;2022-08-20T10:37:33;9.30;;;4.47;;
12511;SDS011;6321;53.798;10.382;2022-08-20T10:39:59;8.47;;;4.03;;
12511;SDS011;6321;53.798;10.382;2022-08-20T10:42:24;6.60;;;4.17;;
12511;SDS011;6321;53.798;10.382;2022-08-20T10:44:50;8.03;;;4.00;;
12511;SDS011;6321;53.798;10.382;2022-08-20T10:47:20;6.10;;;2.90;;
12511;SDS011;6321;53.798;10.382;2022-08-20T10:49:51;3.57;;;2.70;;
12511;SDS011;6321;53.798;10.382;2022-08-20T10:52:18;5.73;;;2.93;;
12511;SDS011;6321;53.798;10.382;2022-08-20T10:54:45;6.07;;;3.00;;
12511;SDS011;6321;53.798;10.382;2022-08-20T10:57:18;5.70;;;2.40;;
12511;SDS011;6321;53.798;10.382;2022-08-20T10:59:46;4.07;;;2.97;;
12511;SDS011;6321;53.798;10.382;2022-08-20T11:02:14;5.43;;;2.40;;
12511;SDS011;6321;53.798;10.382;2022-08-20T11:04:40;3.80;;;3.07;;
12511;SDS011;6321;53.798;10.382;2022-08-20T11:07:16;10.03;;;5.13;;
12511;SDS011;6321;53.798;10.382;2022-08-20T11:09:44;6.83;;;3.10;;
12511;SDS011;6321;53.798;10.382;2022-08-20T11:12:10;3.87;;;2.50;;
12511;SDS011;6321;53.798;10.382;2022-08-20T11:14:36;5.57;;;2.97;;
12511;SDS011;6321;53.798;10.382;2022-08-20T11:17:02;4.67;;;2.90;;
12511;SDS011;6321;53.798;10.382;2022-08-20T11:19:28;7.17;;;3.30;;
12511;SDS011;6321;53.798;10.382;2022-08-20T11:21:54;5.77;;;2.70;;
12511;SDS011;6321;53.798;10.382;2022-08-20T11:24:19;5.33;;;2.77;;
12511;SDS011;6321;53.798;10.382;2022-08-20T11:26:45;6.03;;;2.80;;
12511;SDS011;6321;53.798;10.382;2022-08-20T11:29:13;4.33;;;2.70;;
12511;SDS011;6321;53.798;10.382;2022-08-20T11:31:39;3.90;;;2.63;;
12511;SDS011;6321;53.798;10.382;2022-08-20T11:34:04;7.50;;;3.00;;
12511;SDS011;6321;53.798;10.382;2022-08-20T11:36:30;5.80;;;2.60;;
12511;SDS011;6321;53.798;10.382;2022-08-20T11:38:56;5.73;;;2.50;;
12511;SDS011;6321;53.798;10.382;2022-08-20T11:41:21;7.40;;;2.80;;
12511;SDS011;6321;53.798;10.382;2022-08-20T11:43:47;5.90;;;2.63;;
12511;SDS011;6321;53.798;10.382;2022-08-20T11:46:12;5.83;;;2.90;;
12511;SDS011;6321;53.798;10.382;2022-08-20T11:48:38;4.03;;;2.27;;
12511;SDS011;6321;53.798;10.382;2022-08-20T11:51:03;4.43;;;2.60;;
12511;SDS011;6321;53.798;10.382;2022-08-20T11:53:29;3.83;;;2.20;;
12511;SDS011;6321;53.798;10.382;2022-08-20T11:55:54;6.60;;;2.70;;
12511;SDS011;6321;53.798;10.382;2022-08-20T11:58:20;6.20;;;2.23;;
12511;SDS011;6321;53.798;10.382;2022-08-20T12:00:46;4.43;;;2.17;;
12511;SDS011;6321;53.798;10.382;2022-08-20T12:03:13;5.57;;;2.50;;
12511;SDS011;6321;53.798;10.382;2022-08-20T12:05:40;9.43;;;3.23;;
12511;SDS011;6321;53.798;10.382;2022-08-20T12:08:07;5.27;;;2.30;;
12511;SDS011;6321;53.798;10.382;2022-08-20T12:10:34;6.50;;;2.43;;
12511;SDS011;6321;53.798;10.382;2022-08-20T12:13:00;6.10;;;2.00;;
12511;SDS011;6321;53.798;10.382;2022-08-20T12:15:26;5.30;;;2.37;;
12511;SDS011;6321;53.798;10.382;2022-08-20T12:17:53;9.60;;;2.67;;
12511;SDS011;6321;53.798;10.382;2022-08-20T12:20:19;5.20;;;2.10;;
12511;SDS011;6321;53.798;10.382;2022-08-20T12:22:45;4.63;;;1.90;;
12511;SDS011;6321;53.798;10.382;2022-08-20T12:25:12;4.10;;;1.90;;
12511;SDS011;6321;53.798;10.382;2022-08-20T12:27:38;4.43;;;2.27;;
12511;SDS011;6321;53.798;10.382;2022-08-20T12:30:09;5.53;;;2.13;;
12511;SDS011;6321;53.798;10.382;2022-08-20T12:32:35;4.73;;;2.23;;
12511;SDS011;6321;53.798;10.382;2022-08-20T12:35:02;6.40;;;2.43;;
12511;SDS011;6321;53.798;10.382;2022-08-20T12:37:29;6.03;;;1.83;;
12511;SDS011;6321;53.798;10.382;2022-08-20T12:39:57;5.60;;;2.20;;
12511;SDS011;6321;53.798;10.382;2022-08-20T12:42:24;5.90;;;2.20;;
12511;SDS011;6321;53.798;10.382;2022-08-20T12:44:50;5.63;;;2.63;;
12511;SDS011;6321;53.798;10.382;2022-08-20T12:47:24;3.97;;;2.40;;
12511;SDS011;6321;53.798;10.382;2022-08-20T12:49:55;6.40;;;2.40;;
12511;SDS011;6321;53.798;10.382;2022-08-20T12:52:22;5.07;;;2.00;;
12511;SDS011;6321;53.798;10.382;2022-08-20T12:54:50;5.70;;;1.87;;
12511;SDS011;6321;53.798;10.382;2022-08-20T12:57:36;8.10;;;1.93;;
12511;SDS011;6321;53.798;10.382;2022-08-20T13:00:05;6.97;;;2.30;;
12511;SDS011;6321;53.798;10.382;2022-08-20T13:02:32;3.50;;;1.70;;
12511;SDS011;6321;53.798;10.382;2022-08-20T13:04:58;5.17;;;1.57;;
12511;SDS011;6321;53.798;10.382;2022-08-20T13:07:24;4.30;;;1.80;;
12511;SDS011;6321;53.798;10.382;2022-08-20T13:09:50;5.20;;;2.00;;
12511;SDS011;6321;53.798;10.382;2022-08-20T13:12:16;5.43;;;1.97;;
12511;SDS011;6321;53.798;10.382;2022-08-20T13:14:43;4.70;;;1.90;;
12511;SDS011;6321;53.798;10.382;2022-08-20T13:17:09;3.17;;;1.57;;
12511;SDS011;6321;53.798;10.382;2022-08-20T13:19:36;4.00;;;1.70;;
12511;SDS011;6321;53.798;10.382;2022-08-20T13:22:02;4.40;;;2.37;;
12511;SDS011;6321;53.798;10.382;2022-08-20T13:24:28;3.67;;;2.07;;
12511;SDS011;6321;53.798;10.382;2022-08-20T13:27:02;4.60;;;2.03;;
12511;SDS011;6321;53.798;10.382;2022-08-20T13:29:28;4.93;;;1.93;;
12511;SDS011;6321;53.798;10.382;2022-08-20T13:31:54;5.17;;;1.90;;
12511;SDS011;6321;53.798;10.382;2022-08-20T13:34:21;4.70;;;1.70;;
12511;SDS011;6321;53.798;10.382;2022-08-20T13:36:47;6.33;;;1.97;;
12511;SDS011;6321;53.798;10.382;2022-08-20T13:39:13;3.03;;;1.90;;
12511;SDS011;6321;53.798;10.382;2022-08-20T13:41:40;4.93;;;1.77;;
12511;SDS011;6321;53.798;10.382;2022-08-20T13:44:07;3.63;;;2.00;;
12511;SDS011;6321;53.798;10.382;2022-08-20T13:46:34;7.10;;;1.90;;
12511;SDS011;6321;53.798;10.382;2022-08-20T13:49:01;4.40;;;1.97;;
12511;SDS011;6321;53.798;10.382;2022-08-20T13:51:27;4.87;;;2.00;;
12511;SDS011;6321;53.798;10.382;2022-08-20T13:53:53;4.23;;;1.43;;
12511;SDS011;6321;53.798;10.382;2022-08-20T13:56:20;4.53;;;2.30;;
12511;SDS011;6321;53.798;10.382;2022-08-20T13:58:46;4.93;;;2.30;;
12511;SDS011;6321;53.798;10.382;2022-08-20T14:01:12;6.27;;;2.00;;
12511;SDS011;6321;53.798;10.382;2022-08-20T14:03:39;5.00;;;1.90;;
12511;SDS011;6321;53.798;10.382;2022-08-20T14:06:05;5.90;;;1.80;;
12511;SDS011;6321;53.798;10.382;2022-08-20T14:08:33;3.70;;;2.00;;
12511;SDS011;6321;53.798;10.382;2022-08-20T14:11:00;4.93;;;2.17;;
12511;SDS011;6321;53.798;10.382;2022-08-20T14:13:27;3.40;;;2.00;;
12511;SDS011;6321;53.798;10.382;2022-08-20T14:15:53;10.83;;;2.30;;
12511;SDS011;6321;53.798;10.382;2022-08-20T14:18:20;3.50;;;1.87;;
12511;SDS011;6321;53.798;10.382;2022-08-20T14:20:47;3.03;;;1.57;;
12511;SDS011;6321;53.798;10.382;2022-08-20T14:23:14;4.43;;;1.63;;
12511;SDS011;6321;53.798;10.382;2022-08-20T14:25:40;4.00;;;1.80;;
12511;SDS011;6321;53.798;10.382;2022-08-20T14:28:11;4.33;;;1.63;;
12511;SDS011;6321;53.798;10.382;2022-08-20T14:30:38;6.03;;;2.00;;
12511;SDS011;6321;53.798;10.382;2022-08-20T14:33:04;5.10;;;1.83;;
12511;SDS011;6321;53.798;10.382;2022-08-20T14:35:31;5.17;;;1.73;;
12511;SDS011;6321;53.798;10.382;2022-08-20T14:37:57;3.17;;;1.70;;
12511;SDS011;6321;53.798;10.382;2022-08-20T14:40:25;3.63;;;1.87;;
12511;SDS011;6321;53.798;10.382;2022-08-20T14:42:52;4.13;;;1.47;;
12511;SDS011;6321;53.798;10.382;2022-08-20T14:45:19;5.30;;;2.00;;
12511;SDS011;6321;53.798;10.382;2022-08-20T14:47:47;3.40;;;2.10;;
12511;SDS011;6321;53.798;10.382;2022-08-20T14:50:18;3.20;;;1.80;;
12511;SDS011;6321;53.798;10.382;2022-08-20T14:52:45;5.47;;;1.90;;